Time,TemperatureF,DewpointF,PressureIn,WindDirection,WindDirectionDegrees,WindSpeedMPH,WindSpeedGustMPH,Humidity,HourlyPrecipIn,Conditions,Clouds,dailyrainin,SolarRadiationWatts/m^2,SoftwareType,DateUTC
2013-08-02 00:02:00,56.0,54.0,29.99,SW,232,0.0,2.0,93,0.00,,,0.00,0.000000,,2013-08-02 08:02:00,
2013-08-02 00:12:00,56.0,54.0,29.99,SW,214,0.0,1.0,94,0.00,,,0.00,0.000000,,2013-08-02 08:12:00,
2013-08-02 00:22:00,56.0,54.0,29.98,SW,217,0.0,3.0,93,0.00,,,0.00,0.000000,,2013-08-02 08:22:00,
2013-08-02 00:33:00,56.0,54.0,29.98,WSW,244,1.0,3.0,93,0.00,,,0.00,0.000000,,2013-08-02 08:33:00,
2013-08-02 00:43:00,56.0,54.0,29.99,SSW,196,1.0,6.0,93,0.00,,,0.00,0.000000,,2013-08-02 08:43:00,
2013-08-02 00:53:00,56.0,54.0,29.99,SSW,196,1.0,6.0,93,0.00,,,0.00,0.000000,,2013-08-02 08:53:00,
2013-08-02 01:02:00,57.0,55.0,29.98,SSW,193,1.0,2.0,94,0.00,,,0.00,0.000000,,2013-08-02 09:02:00,
2013-08-02 01:12:00,57.0,55.0,29.98,SSW,193,1.0,2.0,94,0.00,,,0.00,0.000000,,2013-08-02 09:12:00,
2013-08-02 01:22:00,56.0,54.0,29.99,South,171,0.0,2.0,94,0.00,,,0.00,0.000000,,2013-08-02 09:22:00,
2013-08-02 01:33:00,56.0,55.0,29.99,South,171,1.0,3.0,95,0.00,,,0.00,0.000000,,2013-08-02 09:33:00,
2013-08-02 01:43:00,56.0,55.0,29.99,WSW,246,0.0,1.0,95,0.01,,,0.01,0.000000,,2013-08-02 09:43:00,
2013-08-02 01:52:00,56.0,55.0,29.99,WSW,246,0.0,1.0,95,0.01,,,0.01,0.000000,,2013-08-02 09:52:00,
2013-08-02 02:02:00,56.0,55.0,29.99,SSW,213,0.0,1.0,95,0.02,,,0.02,0.000000,,2013-08-02 10:02:00,
2013-08-02 02:12:00,56.0,55.0,29.99,SSW,213,0.0,1.0,95,0.02,,,0.02,0.000000,,2013-08-02 10:12:00,
2013-08-02 02:23:00,56.0,55.0,29.99,SW,215,0.0,3.0,96,0.04,,,0.04,0.000000,,2013-08-02 10:23:00,
2013-08-02 02:33:00,56.0,55.0,30.00,SW,215,0.0,2.0,96,0.03,,,0.04,0.000000,,2013-08-02 10:33:00,
2013-08-02 02:43:00,56.0,55.0,29.99,SW,215,0.0,1.0,96,0.03,,,0.04,0.000000,,2013-08-02 10:43:00,
2013-08-02 02:52:00,56.0,55.0,30.00,SW,215,0.0,2.0,96,0.02,,,0.04,0.000000,,2013-08-02 10:52:00,
2013-08-02 03:02:00,55.0,54.0,30.00,SW,215,0.0,2.0,96,0.02,,,0.04,0.000000,,2013-08-02 11:02:00,
2013-08-02 03:11:00,56.0,55.0,30.00,SSW,195,0.0,3.0,97,0.02,,,0.04,0.000000,,2013-08-02 11:11:00,
2013-08-02 03:32:00,55.0,54.0,29.99,WSW,240,0.0,3.0,97,0.02,,,0.06,0.000000,,2013-08-02 11:32:00,
2013-08-02 03:42:00,55.0,54.0,29.99,South,182,1.0,3.0,96,0.02,,,0.06,0.000000,,2013-08-02 11:42:00,
2013-08-02 03:52:00,55.0,54.0,29.99,South,182,1.0,3.0,96,0.02,,,0.06,0.000000,,2013-08-02 11:52:00,
2013-08-02 04:02:00,55.0,54.0,29.99,SSW,196,0.0,2.0,97,0.02,,,0.06,0.000000,,2013-08-02 12:02:00,
2013-08-02 04:11:00,55.0,54.0,29.99,SSW,196,0.0,1.0,97,0.02,,,0.06,0.000000,,2013-08-02 12:11:00,
2013-08-02 04:32:00,55.0,54.0,29.99,SSW,196,0.0,0.0,97,0.01,,,0.07,0.000000,,2013-08-02 12:32:00,
2013-08-02 04:42:00,55.0,54.0,29.99,SSW,196,0.0,0.0,97,0.02,,,0.08,0.000000,,2013-08-02 12:42:00,
2013-08-02 04:52:00,55.0,54.0,29.98,SSW,196,0.0,0.0,97,0.02,,,0.08,0.000000,,2013-08-02 12:52:00,
2013-08-02 05:02:00,55.0,54.0,29.99,SSW,196,0.0,1.0,97,0.02,,,0.08,0.000000,,2013-08-02 13:02:00,
2013-08-02 05:12:00,55.0,54.0,29.99,SSW,196,0.0,1.0,97,0.02,,,0.08,0.000000,,2013-08-02 13:12:00,
2013-08-02 05:22:00,55.0,54.0,29.99,SSW,196,0.0,0.0,97,0.03,,,0.09,0.000000,,2013-08-02 13:22:00,
2013-08-02 05:42:00,55.0,54.0,29.99,SE,146,0.0,1.0,97,0.01,,,0.09,0.000000,,2013-08-02 13:42:00,
2013-08-02 05:52:00,55.0,54.0,29.99,SE,146,0.0,1.0,97,0.01,,,0.09,0.000000,,2013-08-02 13:52:00,
2013-08-02 06:02:00,55.0,54.0,29.99,SE,146,0.0,1.0,97,0.01,,,0.09,0.000000,,2013-08-02 14:02:00,
2013-08-02 06:12:00,55.0,54.0,29.99,SE,146,0.0,1.0,97,0.01,,,0.09,0.000000,,2013-08-02 14:12:00,
2013-08-02 06:22:00,55.0,54.0,29.99,SE,146,0.0,1.0,97,0.01,,,0.09,0.000000,,2013-08-02 14:22:00,
2013-08-02 06:32:00,55.0,54.0,29.98,East,91,1.0,3.0,97,0.01,,,0.10,0.000000,,2013-08-02 14:32:00,
2013-08-02 06:43:00,55.0,54.0,29.98,East,91,0.0,1.0,96,0.01,,,0.10,11.000000,,2013-08-02 14:43:00,
2013-08-02 06:52:00,55.0,54.0,29.98,East,83,0.0,1.0,97,0.01,,,0.10,16.000000,,2013-08-02 14:52:00,
2013-08-02 07:03:00,55.0,54.0,29.98,East,83,0.0,2.0,97,0.01,,,0.10,30.000000,,2013-08-02 15:03:00,
2013-08-02 07:12:00,55.0,54.0,29.98,East,83,0.0,2.0,97,0.01,,,0.10,30.000000,,2013-08-02 15:12:00,
2013-08-02 07:32:00,55.0,54.0,29.98,East,83,0.0,2.0,97,0.00,,,0.10,49.000000,,2013-08-02 15:32:00,
2013-08-02 07:52:00,55.0,54.0,29.97,NE,48,0.0,3.0,97,0.00,,,0.10,84.000000,,2013-08-02 15:52:00,
2013-08-02 08:01:00,56.0,55.0,29.97,NNE,29,0.0,3.0,97,0.00,,,0.10,98.000000,,2013-08-02 16:01:00,
2013-08-02 08:11:00,56.0,55.0,29.97,NNE,29,0.0,3.0,97,0.00,,,0.10,98.000000,,2013-08-02 16:11:00,
2013-08-02 08:32:00,57.0,56.0,29.96,East,96,0.0,3.0,95,0.00,,,0.10,111.000000,,2013-08-02 16:32:00,
2013-08-02 08:42:00,57.0,55.0,29.96,NE,48,1.0,3.0,94,0.00,,,0.10,114.000000,,2013-08-02 16:42:00,
2013-08-02 08:52:00,57.0,55.0,29.96,ENE,74,2.0,3.0,93,0.00,,,0.10,121.000000,,2013-08-02 16:52:00,
2013-08-02 09:02:00,58.0,55.0,29.96,East,89,1.0,5.0,91,0.00,,,0.10,98.000000,,2013-08-02 17:02:00,
2013-08-02 09:11:00,58.0,55.0,29.96,East,89,1.0,5.0,91,0.00,,,0.10,98.000000,,2013-08-02 17:11:00,
2013-08-02 09:22:00,58.0,55.0,29.96,East,90,1.0,2.0,89,0.00,,,0.10,121.000000,,2013-08-02 17:22:00,
2013-08-02 09:34:00,58.0,55.0,29.97,East,94,1.0,6.0,89,0.00,,,0.10,109.000000,,2013-08-02 17:34:00,
2013-08-02 09:43:00,59.0,56.0,29.96,ESE,105,1.0,3.0,90,0.00,,,0.10,153.000000,,2013-08-02 17:43:00,
2013-08-02 09:52:00,59.0,56.0,29.96,ESE,105,1.0,3.0,90,0.00,,,0.10,153.000000,,2013-08-02 17:52:00,
2013-08-02 10:01:00,60.0,56.0,29.96,East,79,3.0,8.0,87,0.00,,,0.10,202.000000,,2013-08-02 18:01:00,
2013-08-02 10:32:00,60.0,55.0,29.95,NE,56,3.0,8.0,85,0.00,,,0.10,306.000000,,2013-08-02 18:32:00,
2013-08-02 10:52:00,62.0,57.0,29.95,NE,44,2.0,8.0,84,0.00,,,0.10,258.000000,,2013-08-02 18:52:00,
2013-08-02 11:01:00,62.0,57.0,29.95,ENE,71,1.0,8.0,84,0.00,,,0.10,302.000000,,2013-08-02 19:01:00,
2013-08-02 11:43:00,64.0,58.0,29.95,East,86,2.0,7.0,80,0.01,,,0.11,309.000000,,2013-08-02 19:43:00,
2013-08-02 11:52:00,64.0,58.0,29.95,East,86,2.0,7.0,80,0.01,,,0.11,309.000000,,2013-08-02 19:52:00,
2013-08-02 12:02:00,64.0,57.0,29.95,East,81,3.0,7.0,79,0.01,,,0.11,272.000000,,2013-08-02 20:02:00,
2013-08-02 12:12:00,64.0,57.0,29.95,East,81,3.0,7.0,79,0.01,,,0.11,272.000000,,2013-08-02 20:12:00,
2013-08-02 12:22:00,64.0,57.0,29.94,NNE,22,0.0,8.0,78,0.01,,,0.11,325.000000,,2013-08-02 20:22:00,
2013-08-02 12:32:00,65.0,58.0,29.94,ENE,72,1.0,3.0,77,0.01,,,0.12,343.000000,,2013-08-02 20:32:00,
2013-08-02 12:43:00,66.0,58.0,29.93,East,97,1.0,7.0,76,0.01,,,0.12,413.000000,,2013-08-02 20:43:00,
2013-08-02 12:52:00,66.0,59.0,29.93,NNE,27,2.0,8.0,77,0.01,,,0.12,388.000000,,2013-08-02 20:52:00,
2013-08-02 13:02:00,67.0,59.0,29.93,NE,38,2.0,6.0,76,0.01,,,0.12,434.000000,,2013-08-02 21:02:00,
2013-08-02 13:32:00,67.0,57.0,29.92,NNE,18,3.0,5.0,71,0.00,,,0.12,383.000000,,2013-08-02 21:32:00,
2013-08-02 13:43:00,67.0,57.0,29.92,NNW,331,1.0,8.0,71,0.00,,,0.12,338.000000,,2013-08-02 21:43:00,
2013-08-02 13:53:00,67.0,57.0,29.92,NNW,331,1.0,8.0,71,0.00,,,0.12,338.000000,,2013-08-02 21:53:00,
2013-08-02 14:01:00,67.0,58.0,29.92,NNE,25,5.0,8.0,74,0.00,,,0.12,323.000000,,2013-08-02 22:01:00,
2013-08-02 14:32:00,66.0,58.0,29.91,North,358,5.0,12.0,76,0.00,,,0.12,200.000000,,2013-08-02 22:32:00,
2013-08-02 14:52:00,64.0,58.0,29.91,NNE,15,2.0,8.0,80,0.00,,,0.12,186.000000,,2013-08-02 22:52:00,
2013-08-02 15:01:00,64.0,58.0,29.91,North,0,2.0,6.0,81,0.00,,,0.12,287.000000,,2013-08-02 23:01:00,
2013-08-02 15:11:00,65.0,58.0,29.90,NE,37,4.0,8.0,79,0.00,,,0.12,313.000000,,2013-08-02 23:11:00,
2013-08-02 15:22:00,66.0,58.0,29.90,NNE,25,4.0,9.0,75,0.00,,,0.12,329.000000,,2013-08-02 23:22:00,
2013-08-02 15:43:00,67.0,58.0,29.89,NE,47,2.0,9.0,72,0.00,,,0.12,279.000000,,2013-08-02 23:43:00,
2013-08-02 15:53:00,67.0,58.0,29.88,NE,50,2.0,9.0,72,0.00,,,0.12,195.000000,,2013-08-02 23:53:00,
2013-08-02 16:11:00,67.0,58.0,29.88,East,81,1.0,12.0,72,0.00,,,0.12,218.000000,,2013-08-03 00:11:00,
2013-08-02 16:22:00,67.0,58.0,29.88,NNE,25,2.0,7.0,73,0.00,,,0.12,250.000000,,2013-08-03 00:22:00,
2013-08-02 16:52:00,68.0,56.0,29.87,East,80,1.0,5.0,65,0.00,,,0.12,295.000000,,2013-08-03 00:52:00,
2013-08-02 17:02:00,68.0,56.0,29.87,East,80,1.0,5.0,65,0.00,,,0.12,295.000000,,2013-08-03 01:02:00,
2013-08-02 17:11:00,68.0,56.0,29.87,East,80,1.0,5.0,65,0.00,,,0.12,295.000000,,2013-08-03 01:11:00,
2013-08-02 17:22:00,68.0,56.0,29.87,East,80,1.0,5.0,65,0.00,,,0.12,295.000000,,2013-08-03 01:22:00,
2013-08-02 17:32:00,68.0,56.0,29.87,East,80,1.0,5.0,65,0.00,,,0.12,295.000000,,2013-08-03 01:32:00,
2013-08-02 18:02:00,68.0,54.0,29.85,SE,126,3.0,12.0,61,0.00,,,0.12,302.000000,,2013-08-03 02:02:00,
2013-08-02 18:12:00,69.0,55.0,29.84,South,179,2.0,10.0,62,0.00,,,0.12,236.000000,,2013-08-03 02:12:00,
2013-08-02 18:22:00,68.0,54.0,29.84,ESE,117,4.0,12.0,60,0.00,,,0.12,176.000000,,2013-08-03 02:22:00,
2013-08-02 18:32:00,68.0,54.0,29.84,South,181,2.0,9.0,62,0.00,,,0.12,192.000000,,2013-08-03 02:32:00,
2013-08-02 18:43:00,68.0,55.0,29.83,SE,144,2.0,10.0,64,0.00,,,0.12,192.000000,,2013-08-03 02:43:00,
2013-08-02 18:52:00,68.0,55.0,29.83,SE,144,2.0,10.0,64,0.00,,,0.12,192.000000,,2013-08-03 02:52:00,
2013-08-02 19:43:00,65.0,54.0,29.82,East,90,2.0,9.0,67,0.00,,,0.12,49.000000,,2013-08-03 03:43:00,
2013-08-02 19:53:00,65.0,54.0,29.81,ESE,116,3.0,9.0,67,0.00,,,0.12,33.000000,,2013-08-03 03:53:00,
2013-08-02 20:02:00,65.0,54.0,29.81,ESE,104,2.0,10.0,67,0.00,,,0.12,28.000000,,2013-08-03 04:02:00,
2013-08-02 20:22:00,64.0,53.0,29.81,East,101,2.0,7.0,68,0.00,,,0.12,30.000000,,2013-08-03 04:22:00,
2013-08-02 20:32:00,64.0,54.0,29.80,ESE,104,4.0,15.0,69,0.00,,,0.12,30.000000,,2013-08-03 04:32:00,
2013-08-02 21:02:00,63.0,53.0,29.80,East,99,2.0,7.0,70,0.00,,,0.12,14.000000,,2013-08-03 05:02:00,
2013-08-02 21:32:00,63.0,53.0,29.78,East,98,1.0,7.0,71,0.00,,,0.12,11.000000,,2013-08-03 05:32:00,
2013-08-02 22:02:00,62.0,53.0,29.77,East,94,2.0,7.0,72,0.00,,,0.12,0.000000,,2013-08-03 06:02:00,
2013-08-02 22:32:00,62.0,53.0,29.77,ESE,109,2.0,8.0,73,0.00,,,0.12,0.000000,,2013-08-03 06:32:00,
2013-08-02 22:42:00,62.0,53.0,29.76,East,96,2.0,8.0,72,0.00,,,0.12,0.000000,,2013-08-03 06:42:00,
2013-08-02 22:52:00,62.0,53.0,29.76,East,96,2.0,8.0,72,0.00,,,0.12,0.000000,,2013-08-03 06:52:00,
2013-08-02 23:02:00,62.0,53.0,29.76,East,94,2.0,6.0,72,0.00,,,0.12,0.000000,,2013-08-03 07:02:00,
2013-08-02 23:32:00,62.0,53.0,29.75,East,93,1.0,8.0,73,0.00,,,0.12,0.000000,,2013-08-03 07:32:00,
2013-08-02 23:43:00,61.0,53.0,29.75,East,95,1.0,5.0,74,0.00,,,0.12,0.000000,,2013-08-03 07:43:00,
2013-08-02 23:52:00,61.0,53.0,29.75,ENE,73,1.0,6.0,76,0.00,,,0.12,0.000000,,2013-08-03 07:52:00,